Casper, WY

5:02 AM MST on December 27, 2014 (GMT -0700)
Casper Mountain Foothills | Change Station
CLOSE
Current Station
Personal Weather Station
Location: Casper, WY
Elevation: 5334 ft
Nearby Weather Stations
Active Advisory: Special Statement Active Notice: Record Report

Elev 5334 ft 42.83 °N, 106.31 °W | Updated 8 seconds ago

Overcast
Overcast
17.8 °F
Feels Like 18 °F
N
1.0
Wind Variable Wind from WSW
Gusts 4.0 mph

Today
High -- | Low -- °F
--% Chance of Precip.
Yesterday
High -- | Low -- °F
Precip. -- in
7:35 AM 4:37 PM
Waxing Crescent, 36% visible
Pressure 30.29 in
Visibility 10.0 miles
Clouds Overcast 8000 ft
Windchill 18 °F
Dew Point 7 °F
Humidity 62%
Rainfall 0.00 in
Snow Depth Not available.
UV 0 out of 12
Pollen .10 out of 12
Air Quality Not available.
Flu Activity Not available.
METAR KCPR 271153Z 22014KT 10SM OVC080 M11/M14 A3008 RMK AO2 SLP257 70003 T11061139 11100 21156 56004

More Conditions Fewer Conditions

Pressure 30.29 in
Visibility 10.0 miles
Clouds Overcast 8000 ft
Windchill 18 °F
Dew Point 7 °F
Humidity 62%
Rainfall 0.00 in
Snow Depth Not available.
UV 0 out of 12
Pollen .10 out of 12
Air Quality Not available.
Flu Activity Not available.
METAR KCPR 271153Z 22014KT 10SM OVC080 M11/M14 A3008 RMK AO2 SLP257 70003 T11061139 11100 21156 56004

More Conditions Fewer Conditions

10-Day Weather Forecast

Almanac

Astronomy

Dec. 27, 2014 Rise Set
Actual Time
Civil Twilight
Nautical Twilight
Astronomical Twilight
Moon
Length of Visible Light
Length of Day
Tomorrow will be .
, % of the Moon is Illuminated

Today's Extremes

State Highs State Lows

Community

WunderPhotos

Upload Photos

1,780,885 photos uploaded!

WunderBlogs® & News

Nearby

Air Quality

  Air Quality AQ Index Pollutant
Not available.

Snow Depth

Station Depth Elevation

Earthquake Activity

City Distance Mag. Time & Date
Minimum magnitude displayed is 2.5.

Coastal Water Temperatures

Place Temperature

Nearby Weather Stations